createdAt,value
2019-04-26T00:00:45.170Z,95429.24
2019-04-26T00:03:12.495Z,95451.28
2019-04-26T00:05:39.528Z,95435.36
2019-04-26T00:08:07.225Z,95417.81
2019-04-26T00:10:34.254Z,95420.13
2019-04-26T00:13:03.404Z,95420.80
2019-04-26T00:15:30.698Z,95401.92
2019-04-26T00:17:58.580Z,95393.65
2019-04-26T00:20:25.959Z,95406.67
2019-04-26T00:22:53.417Z,95415.16
2019-04-26T00:25:20.490Z,95420.86
2019-04-26T00:27:47.745Z,95417.59
2019-04-26T00:30:14.934Z,95424.31
2019-04-26T00:32:42.355Z,95419.76
2019-04-26T00:35:09.528Z,95407.09
2019-04-26T00:37:36.668Z,95407.61
2019-04-26T00:40:05.148Z,95409.91
2019-04-26T00:42:32.670Z,95408.64
2019-04-26T00:44:59.758Z,95408.00
2019-04-26T00:47:27.173Z,95420.05
2019-04-26T00:49:54.631Z,95413.55
2019-04-26T00:52:22.089Z,95411.00
2019-04-26T00:54:49.136Z,95415.30
2019-04-26T00:57:16.593Z,95419.55
2019-04-26T00:59:43.923Z,95422.69
2019-04-26T01:02:11.007Z,95420.92
2019-04-26T01:04:38.105Z,95412.64
2019-04-26T01:07:05.474Z,95407.60
2019-04-26T01:09:32.528Z,95416.37
2019-04-26T01:11:59.650Z,95424.33
2019-04-26T01:14:27.025Z,95419.61
2019-04-26T01:16:54.062Z,95417.86
2019-04-26T01:19:22.365Z,95414.13
2019-04-26T01:21:49.503Z,95409.09
2019-04-26T01:24:17.941Z,95416.11
2019-04-26T01:26:45.975Z,95428.80
2019-04-26T01:29:13.313Z,95428.17
2019-04-26T01:31:40.363Z,95425.44
2019-04-26T01:34:07.460Z,95435.36
2019-04-26T01:36:34.534Z,95439.91
2019-04-26T01:39:01.711Z,95424.95
2019-04-26T01:41:30.364Z,95424.80
2019-04-26T01:43:57.503Z,95438.82
2019-04-26T01:46:24.810Z,95442.89
2019-04-26T01:48:51.924Z,95443.06
2019-04-26T01:51:20.182Z,95420.47
2019-04-26T01:53:47.776Z,95438.36
2019-04-26T01:56:15.083Z,95448.92
2019-04-26T01:58:42.211Z,95441.11
2019-04-26T02:01:09.268Z,95431.20
2019-04-26T02:03:36.325Z,95439.18
2019-04-26T02:06:03.381Z,95430.41
2019-04-26T02:08:30.717Z,95434.32
2019-04-26T02:10:58.071Z,95442.78
2019-04-26T02:13:25.321Z,95444.42
2019-04-26T02:15:52.881Z,95453.36
2019-04-26T02:18:19.984Z,95446.22
2019-04-26T02:20:47.340Z,95449.48
2019-04-26T02:23:14.417Z,95440.70
2019-04-26T02:25:41.817Z,95441.36
2019-04-26T02:28:09.251Z,95451.76
2019-04-26T02:30:36.844Z,95458.75
2019-04-26T02:33:04.079Z,95468.66
2019-04-26T02:35:32.178Z,95472.23
2019-04-26T02:37:59.929Z,95467.52
2019-04-26T02:40:28.111Z,95476.13
2019-04-26T02:42:55.802Z,95469.95
2019-04-26T02:45:23.199Z,95466.71
2019-04-26T02:47:50.266Z,95464.92
2019-04-26T02:50:17.646Z,95464.28
2019-04-26T02:52:45.063Z,95464.80
2019-04-26T02:55:12.412Z,95465.13
2019-04-26T02:57:39.488Z,95456.84
2019-04-26T03:00:06.918Z,95453.43
2019-04-26T03:02:36.154Z,95454.25
2019-04-26T03:05:03.061Z,95465.30
2019-04-26T03:07:32.168Z,95459.44
2019-04-26T03:09:59.329Z,95468.53
2019-04-26T03:12:26.775Z,95458.75
2019-04-26T03:14:53.862Z,95447.84
2019-04-26T03:17:20.952Z,95438.39
2019-04-26T03:19:48.021Z,95448.44
2019-04-26T03:22:15.120Z,95452.82
2019-04-26T03:24:42.621Z,95459.27
2019-04-26T03:27:10.074Z,95450.95
2019-04-26T03:29:39.024Z,95447.36
2019-04-26T03:32:06.317Z,95449.63
2019-04-26T03:34:39.308Z,95445.07
2019-04-26T03:37:18.981Z,95438.56
2019-04-26T03:39:32.934Z,95442.47
2019-04-26T03:42:00.627Z,95444.56
2019-04-26T03:44:27.709Z,95442.92
2019-04-26T03:46:55.031Z,95443.72
2019-04-26T03:49:22.081Z,95448.75
2019-04-26T03:51:49.434Z,95452.81
2019-04-26T03:54:16.747Z,95459.95
2019-04-26T03:56:45.521Z,95468.24
2019-04-26T03:59:13.041Z,95464.49
2019-04-26T04:01:41.278Z,95467.24
2019-04-26T04:04:09.091Z,95470.98
2019-04-26T04:06:52.992Z,95481.53
2019-04-26T04:09:05.237Z,95482.29
2019-04-26T04:11:32.823Z,95485.83
2019-04-26T04:14:00.353Z,95473.60
2019-04-26T04:16:27.458Z,95472.63
2019-04-26T04:18:54.843Z,95478.63
2019-04-26T04:21:21.883Z,95474.45
2019-04-26T04:23:48.943Z,95487.61
2019-04-26T04:26:16.247Z,95490.04
2019-04-26T04:28:44.544Z,95482.25
2019-04-26T04:31:12.750Z,95483.38
2019-04-26T04:33:42.619Z,95488.27
2019-04-26T04:36:08.888Z,95487.78
2019-04-26T04:38:35.946Z,95485.17
2019-04-26T04:41:03.291Z,95473.45
2019-04-26T04:43:30.348Z,95487.75
2019-04-26T04:45:57.409Z,95484.16
2019-04-26T04:48:24.444Z,95482.30
2019-04-26T04:50:52.598Z,95474.77
2019-04-26T04:53:19.752Z,95486.61
2019-04-26T04:55:47.892Z,95490.07
2019-04-26T04:58:15.393Z,95497.53
2019-04-26T05:00:43.065Z,95495.94
2019-04-26T05:03:11.482Z,95499.13
2019-04-26T05:05:38.530Z,95491.57
2019-04-26T05:08:07.117Z,95502.42
2019-04-26T05:10:34.627Z,95509.20
2019-04-26T05:13:01.687Z,95508.50
2019-04-26T05:15:28.735Z,95520.70
2019-04-26T05:17:56.181Z,95531.76
2019-04-26T05:20:24.476Z,95553.20
2019-04-26T05:22:51.516Z,95553.53
2019-04-26T05:25:18.576Z,95551.63
2019-04-26T05:27:46.755Z,95560.57
2019-04-26T05:30:13.952Z,95560.19
2019-04-26T05:32:41.000Z,95553.62
2019-04-26T05:35:08.054Z,95566.55
2019-04-26T05:37:37.180Z,95575.12
2019-04-26T05:40:03.925Z,95584.73
2019-04-26T05:42:30.967Z,95594.81
2019-04-26T05:44:58.942Z,95593.09
2019-04-26T05:47:26.036Z,95610.47
2019-04-26T05:49:53.753Z,95604.28
2019-04-26T05:52:20.902Z,95617.55
2019-04-26T05:54:47.955Z,95614.51
2019-04-26T05:57:16.068Z,95613.62
2019-04-26T05:59:43.470Z,95617.01
2019-04-26T06:02:10.824Z,95617.35
2019-04-26T06:04:38.183Z,95610.05
2019-04-26T06:07:05.481Z,95615.23
2019-04-26T06:09:32.769Z,95618.17
2019-04-26T06:12:00.939Z,95618.56
2019-04-26T06:14:28.313Z,95613.25
2019-04-26T06:16:55.350Z,95626.55
2019-04-26T06:19:22.718Z,95617.45
2019-04-26T06:21:49.762Z,95603.91
2019-04-26T06:24:17.126Z,95615.12
2019-04-26T06:26:44.170Z,95613.12
2019-04-26T06:29:11.237Z,95626.98
2019-04-26T06:31:38.519Z,95631.74
2019-04-26T06:34:05.564Z,95636.50
2019-04-26T06:36:32.619Z,95639.03
2019-04-26T06:39:00.736Z,95634.39
2019-04-26T06:41:29.419Z,95630.47
2019-04-26T06:43:56.783Z,95636.50
2019-04-26T06:46:24.245Z,95639.03
2019-04-26T06:48:51.346Z,95647.59
2019-04-26T06:51:24.571Z,95654.48
2019-04-26T06:53:47.099Z,95646.88
2019-04-26T06:56:14.154Z,95655.18
2019-04-26T06:58:41.275Z,95656.80
2019-04-26T07:01:08.334Z,95655.58
2019-04-26T07:03:35.372Z,95649.22
2019-04-26T07:06:02.577Z,95657.97
2019-04-26T07:08:29.928Z,95663.11
2019-04-26T07:10:58.199Z,95662.64
2019-04-26T07:13:25.716Z,95662.64
2019-04-26T07:15:52.762Z,95663.67
2019-04-26T07:18:20.166Z,95670.94
2019-04-26T07:20:47.220Z,95672.28
2019-04-26T07:23:14.567Z,95668.93
2019-04-26T07:25:41.627Z,95666.64
2019-04-26T07:28:11.824Z,95665.08
2019-04-26T07:30:37.424Z,95662.72
2019-04-26T07:33:04.809Z,95673.38
2019-04-26T07:35:32.165Z,95674.18
2019-04-26T07:38:01.178Z,95665.80
2019-04-26T07:40:28.922Z,95680.86
2019-04-26T07:42:56.381Z,95678.95
2019-04-26T07:45:23.420Z,95679.94
2019-04-26T07:47:50.643Z,95694.69
2019-04-26T07:50:18.855Z,95701.77
2019-04-26T07:52:46.310Z,95710.70
2019-04-26T07:55:13.666Z,95702.87
2019-04-26T07:57:41.124Z,95709.93
2019-04-26T08:00:08.767Z,95722.03
2019-04-26T08:02:36.982Z,95727.47
2019-04-26T08:05:04.739Z,95730.44
2019-04-26T08:07:33.221Z,95727.70
2019-04-26T08:10:00.261Z,95743.33
2019-04-26T08:12:27.316Z,95748.39
2019-04-26T08:15:02.030Z,95750.33
2019-04-26T08:17:30.942Z,95756.59
2019-04-26T08:19:58.901Z,95754.81
2019-04-26T08:22:28.732Z,95747.33
2019-04-26T08:24:54.762Z,95757.62
2019-04-26T08:27:23.979Z,95763.83
2019-04-26T08:29:50.795Z,95768.23
2019-04-26T08:32:17.847Z,95761.89
2019-04-26T08:34:44.889Z,95764.34
2019-04-26T08:37:12.657Z,95766.48
2019-04-26T08:39:45.533Z,95773.97
2019-04-26T08:42:12.111Z,95787.94
2019-04-26T08:44:37.295Z,95779.50
2019-04-26T08:47:06.036Z,95775.92
2019-04-26T08:49:35.091Z,95769.09
2019-04-26T08:52:13.704Z,95765.67
2019-04-26T08:54:32.594Z,95774.12
2019-04-26T08:57:00.066Z,95778.03
2019-04-26T08:59:27.449Z,95787.95
2019-04-26T09:01:54.789Z,95789.88
2019-04-26T09:04:21.832Z,95787.42
2019-04-26T09:06:48.891Z,95797.98
2019-04-26T09:09:18.091Z,95797.34
2019-04-26T09:11:44.745Z,95788.73
2019-04-26T09:14:11.785Z,95790.52
2019-04-26T09:16:49.826Z,95793.28
2019-04-26T09:19:07.763Z,95791.52
2019-04-26T09:21:35.163Z,95791.85
2019-04-26T09:24:02.247Z,95798.36
2019-04-26T09:26:29.415Z,95807.80
2019-04-26T09:28:57.601Z,95810.08
2019-04-26T09:31:24.996Z,95813.17
2019-04-26T09:33:52.350Z,95823.11
2019-04-26T09:36:19.389Z,95827.02
2019-04-26T09:38:46.511Z,95832.05
2019-04-26T09:41:13.802Z,95834.19
2019-04-26T09:43:41.150Z,95840.05
2019-04-26T09:46:08.192Z,95835.97
2019-04-26T09:48:36.797Z,95832.86
2019-04-26T09:51:03.980Z,95847.02
2019-04-26T09:53:32.205Z,95849.47
2019-04-26T09:55:59.568Z,95842.97
2019-04-26T09:58:30.468Z,95845.41
2019-04-26T10:00:55.914Z,95845.24
2019-04-26T10:03:22.966Z,95845.57
2019-04-26T10:05:52.139Z,95846.55
2019-04-26T10:08:19.410Z,95843.28
2019-04-26T10:10:46.455Z,95845.41
2019-04-26T10:13:15.180Z,95851.10
2019-04-26T10:15:42.261Z,95858.92
2019-04-26T10:18:09.318Z,95864.46
2019-04-26T10:20:36.354Z,95855.02
2019-04-26T10:23:03.414Z,95859.09
2019-04-26T10:25:30.898Z,95857.63
2019-04-26T10:27:58.256Z,95835.48
2019-04-26T10:30:25.300Z,95827.82
2019-04-26T10:32:52.654Z,95820.33
2019-04-26T10:35:21.815Z,95822.78
2019-04-26T10:37:49.285Z,95823.75
2019-04-26T10:40:16.715Z,95822.28
2019-04-26T10:42:44.129Z,95825.07
2019-04-26T10:45:14.514Z,95805.22
2019-04-26T10:47:40.275Z,95808.28
2019-04-26T10:50:07.328Z,95819.52
2019-04-26T10:52:34.671Z,95821.31
2019-04-26T10:55:01.967Z,95826.03
2019-04-26T10:57:30.183Z,95833.86
2019-04-26T10:59:57.487Z,95832.23
2019-04-26T11:02:24.810Z,95836.93
2019-04-26T11:04:51.865Z,95844.27
2019-04-26T11:07:19.217Z,95840.84
2019-04-26T11:09:46.585Z,95843.94
2019-04-26T11:12:14.699Z,95850.77
2019-04-26T11:14:42.118Z,95849.79
2019-04-26T11:17:11.447Z,95848.16
2019-04-26T11:19:37.918Z,95855.66
2019-04-26T11:22:05.290Z,95866.73
2019-04-26T11:24:32.745Z,95879.27
2019-04-26T11:26:59.790Z,95885.80
2019-04-26T11:29:28.727Z,95881.08
2019-04-26T11:31:58.398Z,95884.82
2019-04-26T11:34:25.406Z,95890.03
2019-04-26T11:36:52.462Z,95892.31
2019-04-26T11:39:19.502Z,95882.87
2019-04-26T11:41:46.533Z,95886.13
2019-04-26T11:44:13.588Z,95897.19
2019-04-26T11:46:45.050Z,95897.03
2019-04-26T11:49:09.983Z,95890.03
2019-04-26T11:51:37.338Z,95876.67
2019-04-26T11:54:04.399Z,95889.05
2019-04-26T11:56:33.975Z,95896.38
2019-04-26T11:59:00.532Z,95898.66
2019-04-26T12:01:28.640Z,95897.20
2019-04-26T12:03:59.377Z,95894.43
2019-04-26T12:06:24.746Z,95898.02
2019-04-26T12:08:51.789Z,95898.50
2019-04-26T12:11:25.765Z,95902.57
2019-04-26T12:13:48.558Z,95903.38
2019-04-26T12:16:18.749Z,95904.69
2019-04-26T12:18:46.845Z,95907.46
2019-04-26T12:21:13.901Z,95913.48
2019-04-26T12:23:41.190Z,95906.80
2019-04-26T12:26:09.528Z,95908.11
2019-04-26T12:28:40.020Z,95904.69
2019-04-26T12:31:05.634Z,95903.53
2019-04-26T12:33:33.040Z,95908.25
2019-04-26T12:36:00.092Z,95912.73
2019-04-26T12:38:28.531Z,95908.59
2019-04-26T12:40:55.884Z,95895.38
2019-04-26T12:43:24.563Z,95890.81
2019-04-26T12:45:52.558Z,95892.61
2019-04-26T12:48:20.129Z,95889.34
2019-04-26T12:50:47.178Z,95892.44
2019-04-26T12:53:14.530Z,95881.02
2019-04-26T12:55:41.841Z,95886.39
2019-04-26T12:58:11.162Z,95896.17
2019-04-26T13:00:38.917Z,95896.86
2019-04-26T13:03:05.948Z,95907.30
2019-04-26T13:05:33.014Z,95912.36
2019-04-26T13:08:01.963Z,95918.44
2019-04-26T13:10:31.406Z,95922.55
2019-04-26T13:12:58.465Z,95929.61
2019-04-26T13:15:25.846Z,95926.52
2019-04-26T13:17:52.889Z,95934.66
2019-04-26T13:20:19.926Z,95937.87
2019-04-26T13:22:50.194Z,95941.14
2019-04-26T13:25:26.018Z,95939.70
2019-04-26T13:27:45.582Z,95947.86
2019-04-26T13:30:13.294Z,95953.08
2019-04-26T13:32:40.712Z,95957.48
2019-04-26T13:35:11.519Z,95956.51
2019-04-26T13:37:37.163Z,95957.48
2019-04-26T13:40:05.650Z,95959.92
2019-04-26T13:42:33.214Z,95968.40
2019-04-26T13:45:00.586Z,95975.73
2019-04-26T13:47:27.636Z,95974.59
2019-04-26T13:49:55.079Z,95989.56
2019-04-26T13:52:22.134Z,95988.27
2019-04-26T13:54:51.218Z,95984.69
2019-04-26T13:57:18.466Z,95985.84
2019-04-26T13:59:45.501Z,95986.49
2019-04-26T14:02:12.552Z,95988.45
2019-04-26T14:04:41.181Z,95989.27
2019-04-26T14:07:09.012Z,95980.75
2019-04-26T14:09:36.051Z,95969.81
2019-04-26T14:12:17.544Z,95976.47
2019-04-26T14:14:34.123Z,95985.09
2019-04-26T14:17:00.891Z,95989.58
2019-04-26T14:19:28.002Z,95979.62
2019-04-26T14:21:55.395Z,95987.27
2019-04-26T14:24:24.080Z,95987.22
2019-04-26T14:26:51.841Z,95975.50
2019-04-26T14:29:18.887Z,95977.00
2019-04-26T14:31:47.297Z,95979.12
2019-04-26T14:34:15.739Z,95975.37
2019-04-26T14:36:43.819Z,95972.62
2019-04-26T14:39:14.482Z,95957.48
2019-04-26T14:41:39.782Z,95962.89
2019-04-26T14:44:15.198Z,95959.11
2019-04-26T14:46:48.187Z,95945.64
2019-04-26T14:49:05.796Z,95941.42
2019-04-26T14:51:33.003Z,95939.34
2019-04-26T14:54:00.325Z,95952.06
2019-04-26T14:56:29.409Z,95957.88
2019-04-26T14:58:56.435Z,95948.97
2019-04-26T15:01:24.627Z,95956.48
2019-04-26T15:03:55.856Z,95956.53
2019-04-26T15:06:23.319Z,95961.07
2019-04-26T15:08:49.615Z,95967.47
2019-04-26T15:11:16.910Z,95961.98
2019-04-26T15:13:44.296Z,95967.27
2019-04-26T15:16:12.386Z,95962.47
2019-04-26T15:18:42.519Z,95971.83
2019-04-26T15:21:09.399Z,95973.31
2019-04-26T15:23:36.457Z,95974.67
2019-04-26T15:26:04.469Z,95973.19
2019-04-26T15:28:33.190Z,95986.88
2019-04-26T15:31:02.319Z,95994.95
2019-04-26T15:33:29.527Z,96006.20
2019-04-26T15:35:56.578Z,96006.50
2019-04-26T15:38:23.637Z,96005.39
2019-04-26T15:40:51.036Z,96001.38
2019-04-26T15:43:18.093Z,96003.43
2019-04-26T15:45:45.437Z,96012.04
2019-04-26T15:48:16.249Z,96006.13
2019-04-26T15:50:48.416Z,96001.30
2019-04-26T15:53:12.821Z,95994.11
2019-04-26T15:55:41.439Z,95988.56
2019-04-26T15:58:09.376Z,95977.37
2019-04-26T16:00:36.480Z,95973.31
2019-04-26T16:03:07.193Z,95973.10
2019-04-26T16:05:32.805Z,95973.88
2019-04-26T16:08:03.276Z,95975.34
2019-04-26T16:10:29.706Z,95968.63
2019-04-26T16:13:01.255Z,95975.98
2019-04-26T16:15:26.907Z,95970.15
2019-04-26T16:17:54.264Z,95965.48
2019-04-26T16:20:22.116Z,95974.59
2019-04-26T16:22:49.371Z,95974.03
2019-04-26T16:25:16.380Z,95985.52
2019-04-26T16:27:43.694Z,95991.56
2019-04-26T16:30:10.753Z,95992.84
2019-04-26T16:32:38.459Z,95997.07
2019-04-26T16:35:05.850Z,95996.58
2019-04-26T16:37:35.177Z,96001.81
2019-04-26T16:40:03.128Z,95990.40
2019-04-26T16:42:31.792Z,95987.47
2019-04-26T16:45:04.077Z,95996.61
2019-04-26T16:47:27.898Z,96001.34
2019-04-26T16:49:54.961Z,96007.05
2019-04-26T16:52:23.762Z,96007.86
2019-04-26T16:54:53.065Z,96007.70
2019-04-26T16:57:20.134Z,96013.11
2019-04-26T16:59:54.093Z,96016.25
2019-04-26T17:02:24.553Z,96016.09
2019-04-26T17:04:44.968Z,96023.43
2019-04-26T17:07:13.892Z,96017.06
2019-04-26T17:09:55.771Z,96014.30
2019-04-26T17:12:10.656Z,96013.81
2019-04-26T17:14:40.694Z,96013.00
2019-04-26T17:17:10.847Z,96018.71
2019-04-26T17:19:37.584Z,96016.28
2019-04-26T17:22:04.762Z,96021.02
2019-04-26T17:24:31.814Z,96021.02
2019-04-26T17:26:58.856Z,96022.33
2019-04-26T17:29:25.894Z,96020.20
2019-04-26T17:31:52.953Z,96025.30
2019-04-26T17:34:22.487Z,96021.55
2019-04-26T17:36:54.873Z,96022.52
2019-04-26T17:39:22.649Z,96030.50
2019-04-26T17:41:53.109Z,96026.74
2019-04-26T17:44:20.636Z,96025.93
2019-04-26T17:46:53.024Z,96026.74
2019-04-26T17:49:22.628Z,96035.70
2019-04-26T17:51:46.498Z,96030.32
2019-04-26T17:54:41.046Z,96036.02
2019-04-26T17:56:42.934Z,96044.97
2019-04-26T17:59:13.782Z,96044.64
2019-04-26T18:01:47.420Z,96043.33
2019-04-26T18:04:11.112Z,96045.30
2019-04-26T18:06:37.949Z,96043.66
2019-04-26T18:09:04.992Z,96047.57
2019-04-26T18:11:33.362Z,96044.47
2019-04-26T18:14:00.398Z,96038.27
2019-04-26T18:16:29.680Z,96034.81
2019-04-26T18:18:56.239Z,96038.07
2019-04-26T18:21:23.601Z,96045.39
2019-04-26T18:23:54.638Z,96044.09
2019-04-26T18:26:21.607Z,96049.95
2019-04-26T18:28:51.754Z,96044.89
2019-04-26T18:31:21.453Z,96045.86
2019-04-26T18:33:46.535Z,96050.75
2019-04-26T18:36:13.888Z,96048.30
2019-04-26T18:38:43.159Z,96049.27
2019-04-26T18:41:10.323Z,96047.30
2019-04-26T18:43:37.531Z,96045.16
2019-04-26T18:46:06.600Z,96051.83
2019-04-26T18:48:35.308Z,96053.27
2019-04-26T18:51:03.400Z,96054.38
2019-04-26T18:53:36.594Z,96060.73
2019-04-26T18:56:03.445Z,96056.30
2019-04-26T18:58:30.256Z,96058.22
2019-04-26T19:01:01.076Z,96053.81
2019-04-26T19:03:30.221Z,96057.36
2019-04-26T19:05:58.482Z,96057.19
2019-04-26T19:08:27.352Z,96059.44
2019-04-26T19:11:01.020Z,96053.56
2019-04-26T19:13:22.244Z,96049.81
2019-04-26T19:15:49.393Z,96051.91
2019-04-26T19:18:16.724Z,96054.81
2019-04-26T19:20:44.011Z,96049.92
2019-04-26T19:23:12.198Z,96049.89
2019-04-26T19:25:41.240Z,96047.78
2019-04-26T19:28:08.544Z,96040.92
2019-04-26T19:30:39.749Z,96039.92
2019-04-26T19:33:04.950Z,96042.83
2019-04-26T19:35:32.897Z,96044.58
2019-04-26T19:38:00.266Z,96038.87
2019-04-26T19:40:27.622Z,96040.31
2019-04-26T19:42:57.471Z,96044.86
2019-04-26T19:45:24.021Z,96044.67
2019-04-26T19:47:52.041Z,96050.18
2019-04-26T19:50:19.196Z,96045.91
2019-04-26T19:52:46.436Z,96049.81
2019-04-26T19:55:13.459Z,96048.36
2019-04-26T19:57:41.030Z,96052.11
2019-04-26T20:00:09.434Z,96055.86
2019-04-26T20:02:39.323Z,96051.96
2019-04-26T20:05:07.729Z,96053.56
2019-04-26T20:07:35.498Z,96050.63
2019-04-26T20:10:05.027Z,96052.41
2019-04-26T20:12:35.163Z,96044.09
2019-04-26T20:15:02.193Z,96047.00
2019-04-26T20:17:29.798Z,96045.84
2019-04-26T20:19:57.197Z,96042.91
2019-04-26T20:22:28.258Z,96050.75
2019-04-26T20:24:57.353Z,96052.72
2019-04-26T20:27:25.254Z,96056.98
2019-04-26T20:29:51.654Z,96059.91
2019-04-26T20:32:21.198Z,96049.52
2019-04-26T20:34:49.391Z,96058.80
2019-04-26T20:37:22.837Z,96062.55
2019-04-26T20:39:45.315Z,96057.05
2019-04-26T20:42:12.357Z,96061.49
2019-04-26T20:44:50.315Z,96060.55
2019-04-26T20:47:14.264Z,96065.42
2019-04-26T20:49:47.407Z,96076.49
2019-04-26T20:52:05.645Z,96077.83
2019-04-26T20:54:32.695Z,96082.42
2019-04-26T20:57:01.771Z,96086.17
2019-04-26T20:59:29.107Z,96075.92
2019-04-26T21:02:06.974Z,96081.61
2019-04-26T21:04:36.826Z,96073.62
2019-04-26T21:06:54.370Z,96087.27
2019-04-26T21:09:21.884Z,96079.58
2019-04-26T21:11:49.030Z,96081.52
2019-04-26T21:14:17.052Z,96086.05
2019-04-26T21:16:49.519Z,96084.56
2019-04-26T21:19:18.997Z,96089.47
2019-04-26T21:21:48.498Z,96092.89
2019-04-26T21:24:13.368Z,96094.22
2019-04-26T21:26:40.256Z,96092.92
2019-04-26T21:29:07.710Z,96091.95
2019-04-26T21:31:36.370Z,96101.88
2019-04-26T21:34:07.929Z,96096.19
2019-04-26T21:36:34.677Z,96089.53
2019-04-26T21:39:04.129Z,96088.05
2019-04-26T21:41:33.761Z,96086.11
2019-04-26T21:44:03.022Z,96094.73
2019-04-26T21:46:30.265Z,96090.83
2019-04-26T21:48:57.320Z,96090.31
2019-04-26T21:51:24.657Z,96090.95
2019-04-26T21:53:52.924Z,96099.88
2019-04-26T21:56:20.234Z,96104.59
2019-04-26T21:58:47.571Z,96101.17
2019-04-26T22:01:15.660Z,96103.93
2019-04-26T22:03:47.502Z,96104.45
2019-04-26T22:06:14.095Z,96101.33
2019-04-26T22:08:41.255Z,96102.96
2019-04-26T22:11:08.306Z,96109.83
2019-04-26T22:13:37.301Z,96105.11
2019-04-26T22:16:07.839Z,96114.03
2019-04-26T22:18:33.450Z,96111.91
2019-04-26T22:21:00.512Z,96103.11
2019-04-26T22:23:27.561Z,96106.86
2019-04-26T22:25:55.999Z,96105.56
2019-04-26T22:28:23.582Z,96097.39
2019-04-26T22:30:53.484Z,96102.89
2019-04-26T22:33:21.174Z,96101.26
2019-04-26T22:35:50.479Z,96101.56
2019-04-26T22:38:17.468Z,96102.16
2019-04-26T22:40:48.516Z,96104.09
2019-04-26T22:43:18.714Z,96102.31
2019-04-26T22:45:46.815Z,96100.00
2019-04-26T22:48:19.396Z,96102.91
2019-04-26T22:50:41.280Z,96101.90
2019-04-26T22:53:08.608Z,96100.41
2019-04-26T22:55:35.658Z,96100.27
2019-04-26T22:58:03.288Z,96101.38
2019-04-26T23:00:30.327Z,96098.63
2019-04-26T23:02:58.219Z,96105.61
2019-04-26T23:05:26.123Z,96106.91
2019-04-26T23:07:54.681Z,96108.70
2019-04-26T23:10:28.225Z,96104.31
2019-04-26T23:12:50.891Z,96104.61
2019-04-26T23:15:17.927Z,96104.79
2019-04-26T23:17:45.246Z,96112.11
2019-04-26T23:20:13.105Z,96101.04
2019-04-26T23:22:40.414Z,96104.75
2019-04-26T23:25:07.450Z,96109.31
2019-04-26T23:27:34.756Z,96113.22
2019-04-26T23:30:01.798Z,96120.20
2019-04-26T23:32:28.854Z,96116.34
2019-04-26T23:34:58.265Z,96119.14
2019-04-26T23:37:27.613Z,96122.92
2019-04-26T23:39:53.713Z,96123.11
2019-04-26T23:42:23.250Z,96122.00
2019-04-26T23:44:49.783Z,96119.39
2019-04-26T23:47:22.515Z,96119.88
2019-04-26T23:49:49.354Z,96115.31
2019-04-26T23:52:18.666Z,96114.53
2019-04-26T23:54:44.464Z,96110.92
2019-04-26T23:57:11.827Z,96107.47
2019-04-26T23:59:38.859Z,96106.77
